Time;durP1;ratioP1;P1;durP2;ratioP2;P2;SDS_P1;SDS_P2;PMS_P1;PMS_P2;Temp;Humidity;BMP_temperature;BMP_pressure;BME280_temperature;BME280_humidity;BME280_pressure;Samples;Min_cycle;Max_cycle;Signal;HPM_P1;HPM_P2
2023/03/15 00:00:53;;;;;;;5.57;2.80;;;;;;;8.21;47.98;63799.41;5111054;28;20202;-54
2023/03/15 00:03:19;;;;;;;6.57;3.23;;;;;;;8.16;48.36;63793.41;5111666;28;20184;-53
2023/03/15 00:05:46;;;;;;;5.03;3.00;;;;;;;8.13;48.15;63788.16;5111188;28;20254;-55
2023/03/15 00:08:12;;;;;;;6.57;2.97;;;;;;;8.17;48.92;63797.56;5111514;28;20227;-56
2023/03/15 00:10:42;;;;;;;5.00;3.00;;;;;;;8.17;48.83;63797.00;5110951;28;20630;-55
2023/03/15 00:13:09;;;;;;;5.60;3.00;;;;;;;8.10;48.98;63787.38;5111098;28;20219;-54
2023/03/15 00:15:36;;;;;;;5.00;2.53;;;;;;;8.15;49.63;63792.31;5110988;28;20203;-55
2023/03/15 00:18:02;;;;;;;3.73;2.70;;;;;;;8.13;46.57;63790.69;5110776;28;20243;-54
2023/03/15 00:20:28;;;;;;;4.93;2.43;;;;;;;8.14;46.42;63788.72;5110881;28;20203;-59
2023/03/15 00:22:54;;;;;;;5.57;2.60;;;;;;;8.10;47.34;63787.38;5092892;28;20199;-61
2023/03/15 00:25:20;;;;;;;4.37;2.70;;;;;;;8.22;46.87;63797.44;5092482;28;20271;-54
2023/03/15 00:27:45;;;;;;;3.87;2.67;;;;;;;8.22;46.34;63800.50;5111133;28;20676;-55
2023/03/15 00:30:11;;;;;;;4.57;2.33;;;;;;;8.29;48.39;63808.16;5110853;28;20342;-54
2023/03/15 00:32:36;;;;;;;4.20;2.40;;;;;;;8.32;45.95;63808.41;5110790;28;20250;-54
2023/03/15 00:35:02;;;;;;;4.33;2.63;;;;;;;8.40;47.14;63822.69;5110803;28;20235;-61
2023/03/15 00:37:30;;;;;;;4.03;2.53;;;;;;;8.43;48.61;63822.91;5110857;28;20266;-60
2023/03/15 00:39:55;;;;;;;3.03;2.23;;;;;;;8.51;47.36;63828.59;5092702;28;20214;-60
2023/03/15 00:42:21;;;;;;;4.37;2.60;;;;;;;8.57;47.60;63840.72;5110793;28;20187;-59
2023/03/15 00:44:46;;;;;;;3.47;2.50;;;;;;;8.65;46.42;63844.41;5094769;28;20214;-57
2023/03/15 00:47:13;;;;;;;3.03;2.40;;;;;;;8.63;45.77;63844.19;5114383;28;20763;-57
2023/03/15 00:49:39;;;;;;;3.47;2.33;;;;;;;8.68;45.98;63847.16;5114022;28;20207;-56
2023/03/15 00:52:06;;;;;;;6.83;2.70;;;;;;;8.73;44.95;63855.69;5114095;28;20207;-57
2023/03/15 00:54:32;;;;;;;5.60;3.23;;;;;;;8.45;45.05;63825.09;5113978;28;20257;-57
2023/03/15 00:56:59;;;;;;;9.03;6.27;;;;;;;8.19;48.88;63794.72;5113902;28;20199;-57
2023/03/15 00:59:26;;;;;;;11.73;6.77;;;;;;;7.99;51.24;63777.91;5114199;28;20298;-57
2023/03/15 01:01:52;;;;;;;9.40;6.20;;;;;;;7.84;52.25;63758.47;5114070;28;20196;-57
2023/03/15 01:04:17;;;;;;;9.27;5.77;;;;;;;7.85;51.95;63755.09;5114108;28;20219;-54
2023/03/15 01:06:43;;;;;;;11.83;6.70;;;;;;;7.81;52.22;63752.69;5114152;28;20199;-54
2023/03/15 01:09:08;;;;;;;11.07;6.40;;;;;;;7.73;52.69;63747.00;5113856;28;20695;-55
2023/03/15 01:11:35;;;;;;;9.60;5.83;;;;;;;7.66;52.62;63739.38;5114066;28;20222;-56
2023/03/15 01:14:02;;;;;;;12.93;6.03;;;;;;;7.77;52.39;63748.88;5114090;28;20211;-53
2023/03/15 01:16:28;;;;;;;11.07;6.23;;;;;;;7.91;53.14;63763.59;5114149;28;20191;-55
2023/03/15 01:18:54;;;;;;;13.43;6.43;;;;;;;7.90;51.76;63762.50;5095764;28;20239;-57
2023/03/15 01:21:21;;;;;;;11.73;6.13;;;;;;;7.90;51.91;63763.06;5113706;28;20176;-57
2023/03/15 01:23:47;;;;;;;7.60;5.00;;;;;;;7.80;51.01;63754.63;5113917;28;20203;-58
2023/03/15 01:26:14;;;;;;;10.00;5.83;;;;;;;8.04;52.13;63780.84;5113651;28;20187;-58
2023/03/15 01:28:41;;;;;;;8.17;6.33;;;;;;;8.21;52.81;63799.41;5113440;28;20187;-57
2023/03/15 01:31:14;;;;;;;11.17;6.87;;;;;;;8.13;53.07;63790.13;5112925;28;20186;-57
2023/03/15 01:33:40;;;;;;;10.80;7.17;;;;;;;7.89;53.87;63766.97;5113616;28;20207;-58
2023/03/15 01:36:06;;;;;;;10.40;6.33;;;;;;;8.13;53.43;63788.16;5113507;28;20179;-57
2023/03/15 01:38:32;;;;;;;14.67;6.43;;;;;;;8.23;53.65;63801.59;5113672;28;20187;-58
2023/03/15 01:40:59;;;;;;;12.87;6.43;;;;;;;8.26;53.64;63799.84;5113632;28;20211;-56
2023/03/15 01:43:30;;;;;;;13.07;7.27;;;;;;;8.42;53.35;63824.88;5113661;28;20188;-55
2023/03/15 01:46:22;;;;;;;12.23;6.73;;;;;;;8.49;53.32;63826.94;5113635;28;20184;-55
2023/03/15 01:48:51;;;;;;;9.90;6.60;;;;;;;8.52;54.18;63827.72;5113674;28;20329;-56
2023/03/15 01:51:23;;;;;;;12.13;6.53;;;;;;;8.61;53.63;63842.56;5113468;28;20215;-58
2023/03/15 01:53:55;;;;;;;10.03;6.20;;;;;;;8.68;52.81;63850.22;5112931;28;20316;-57
2023/03/15 01:56:23;;;;;;;9.90;7.00;;;;;;;8.63;52.28;63842.25;5113024;28;20186;-58
2023/03/15 01:58:51;;;;;;;10.43;6.57;;;;;;;8.65;51.97;63843.88;5112935;28;20212;-57
2023/03/15 02:01:19;;;;;;;14.07;6.37;;;;;;;8.56;54.44;63834.59;5112925;28;20778;-54
2023/03/15 02:03:48;;;;;;;12.13;6.70;;;;;;;8.61;54.25;63839.50;5094842;28;20213;-60
2023/03/15 02:06:17;;;;;;;10.17;6.27;;;;;;;8.77;52.07;63860.03;5113135;28;20174;-56
2023/03/15 02:08:50;;;;;;;10.23;5.80;;;;;;;8.53;52.50;63833.28;5112991;28;20192;-56
2023/03/15 02:11:19;;;;;;;8.87;6.03;;;;;;;8.53;53.18;63830.75;5113067;28;20172;-54
2023/03/15 02:13:47;;;;;;;9.03;5.00;;;;;;;8.52;51.72;63832.75;5112719;28;20237;-57
2023/03/15 02:16:12;;;;;;;4.60;3.23;;;;;;;8.64;52.11;63842.78;5112689;28;20180;-57
2023/03/15 02:18:38;;;;;;;5.83;3.30;;;;;;;8.51;50.78;63828.59;5112559;28;20255;-57
2023/03/15 02:21:31;;;;;;;6.23;2.60;;;;;;;8.42;50.21;63819.84;5112835;28;20266;-61
2023/03/15 02:24:09;;;;;;;5.60;3.03;;;;;;;8.37;50.40;63819.41;5112784;28;20211;-57
2023/03/15 02:26:42;;;;;;;3.77;2.70;;;;;;;8.33;50.10;63811.97;5112849;28;20276;-60
2023/03/15 02:29:09;;;;;;;3.30;2.17;;;;;;;8.29;50.04;63805.66;5112709;28;20235;-57
2023/03/15 02:31:36;;;;;;;4.30;2.67;;;;;;;8.11;49.65;63782.91;5112995;28;20203;-59
2023/03/15 02:34:06;;;;;;;5.23;3.30;;;;;;;8.23;50.04;63804.09;5112920;28;20230;-57
2023/03/15 02:36:33;;;;;;;6.23;3.10;;;;;;;8.29;48.99;63807.63;5112666;28;20202;-58
2023/03/15 02:38:59;;;;;;;4.07;2.93;;;;;;;8.18;49.69;63795.59;5112833;28;20215;-55
2023/03/15 02:41:29;;;;;;;4.03;2.47;;;;;;;8.19;49.20;63794.72;5112406;28;20187;-54
2023/03/15 02:44:17;;;;;;;5.93;2.70;;;;;;;8.09;49.83;63785.75;5112203;28;20223;-55
2023/03/15 02:46:47;;;;;;;4.13;2.70;;;;;;;8.08;50.90;63784.69;5112351;28;20710;-55
2023/03/15 02:49:15;;;;;;;5.83;3.13;;;;;;;8.08;50.50;63785.22;5112163;28;20317;-53
2023/03/15 02:51:41;;;;;;;5.43;3.40;;;;;;;8.14;50.13;63791.75;5112085;28;20207;-55
2023/03/15 02:54:06;;;;;;;6.07;3.20;;;;;;;8.16;50.97;63793.41;5112106;28;20203;-55
2023/03/15 02:56:32;;;;;;;8.50;3.77;;;;;;;8.36;49.49;63812.75;5111985;28;20188;-54
2023/03/15 02:58:58;;;;;;;4.53;3.53;;;;;;;8.26;50.32;63802.38;5112234;28;20294;-54
2023/03/15 03:01:23;;;;;;;6.60;3.93;;;;;;;8.00;51.01;63775.94;5112291;28;20277;-54
2023/03/15 03:03:49;;;;;;;9.23;3.73;;;;;;;7.93;50.86;63765.78;5093842;28;20278;-54
2023/03/15 03:06:15;;;;;;;6.67;3.27;;;;;;;7.76;50.55;63747.78;5111134;28;20180;-54
2023/03/15 03:08:45;;;;;;;4.87;3.30;;;;;;;7.62;50.86;63732.50;5112255;28;20183;-54
2023/03/15 03:11:15;;;;;;;7.73;3.33;;;;;;;7.47;50.86;63716.66;5112238;28;20189;-54
2023/03/15 03:13:41;;;;;;;5.73;3.70;;;;;;;7.40;51.01;63711.00;5111922;28;20211;-55
2023/03/15 03:16:08;;;;;;;7.13;3.77;;;;;;;7.39;51.78;63710.44;5112422;28;20267;-54
2023/03/15 03:18:36;;;;;;;6.90;3.53;;;;;;;7.44;51.36;63712.84;5111811;28;20183;-54
2023/03/15 03:21:04;;;;;;;7.83;4.53;;;;;;;7.61;51.16;63736.94;5112144;28;20172;-60
2023/03/15 03:23:32;;;;;;;6.67;3.90;;;;;;;7.41;51.92;63710.13;5112032;28;20230;-60
2023/03/15 03:25:58;;;;;;;4.07;3.27;;;;;;;7.42;52.33;63713.72;5111962;28;20191;-59
2023/03/15 03:28:28;;;;;;;5.97;3.50;;;;;;;7.51;50.74;63723.53;5111890;28;20282;-59
2023/03/15 03:30:55;;;;;;;6.07;3.50;;;;;;;7.56;51.43;63729.00;5111626;28;20665;-58
2023/03/15 03:33:22;;;;;;;6.97;3.83;;;;;;;7.63;51.51;63736.63;5111861;28;20291;-58
2023/03/15 03:35:48;;;;;;;6.30;3.83;;;;;;;7.64;52.04;63739.69;5111486;28;20286;-58
2023/03/15 03:38:14;;;;;;;6.03;4.07;;;;;;;7.70;51.73;63743.19;5111627;28;20629;-59
2023/03/15 03:40:39;;;;;;;8.67;3.50;;;;;;;7.70;51.66;63743.72;5111518;28;20207;-59
2023/03/15 03:43:06;;;;;;;8.67;3.50;;;;;;;7.85;51.02;63760.09;5111385;28;20191;-55
2023/03/15 03:45:32;;;;;;;4.90;3.37;;;;;;;7.85;51.01;63759.56;5111302;28;20207;-54
2023/03/15 03:47:58;;;;;;;9.07;3.97;;;;;;;7.76;50.97;63747.78;5093471;28;20651;-56
2023/03/15 03:50:23;;;;;;;7.60;3.30;;;;;;;7.87;51.79;63762.28;5111250;28;20203;-55
2023/03/15 03:52:49;;;;;;;6.23;4.17;;;;;;;7.73;51.67;63746.47;5111534;28;20215;-55
2023/03/15 03:55:14;;;;;;;10.83;4.30;;;;;;;7.72;51.37;63745.34;5111371;28;20196;-55
2023/03/15 03:57:41;;;;;;;5.57;3.43;;;;;;;7.77;52.10;63751.38;5111332;28;20188;-54
2023/03/15 04:00:08;;;;;;;4.90;3.20;;;;;;;7.75;51.83;63751.16;5110966;28;20731;-55
2023/03/15 04:02:34;;;;;;;4.93;4.00;;;;;;;7.74;52.08;63745.59;5111041;28;20187;-54
2023/03/15 04:05:00;;;;;;;6.90;3.60;;;;;;;7.83;51.96;63757.94;5111206;28;20256;-56
2023/03/15 04:07:26;;;;;;;9.20;4.00;;;;;;;7.85;52.34;63759.56;5111370;28;20275;-58
2023/03/15 04:09:52;;;;;;;10.47;3.97;;;;;;;7.72;52.42;63743.41;5111109;28;20199;-58
2023/03/15 04:12:17;;;;;;;7.80;4.03;;;;;;;7.76;51.30;63750.28;5111273;28;20245;-55
2023/03/15 04:14:43;;;;;;;6.73;4.27;;;;;;;7.56;54.00;63723.44;5110934;28;20203;-54
2023/03/15 04:17:08;;;;;;;5.30;3.17;;;;;;;7.34;55.04;63705.00;5110553;28;20230;-54
2023/03/15 04:19:34;;;;;;;6.13;3.90;;;;;;;7.16;55.50;63684.81;5092444;28;20242;-55
2023/03/15 04:22:05;;;;;;;6.10;3.77;;;;;;;7.37;54.56;63702.72;5110892;28;20203;-53
2023/03/15 04:24:33;;;;;;;5.70;3.80;;;;;;;7.33;54.31;63703.38;5092528;28;20238;-54
2023/03/15 04:26:59;;;;;;;7.17;3.40;;;;;;;7.24;55.79;63693.53;5110965;28;20548;-59
2023/03/15 04:29:24;;;;;;;6.30;3.27;;;;;;;7.37;54.81;63710.22;5111060;28;20203;-55
2023/03/15 04:31:50;;;;;;;4.67;3.40;;;;;;;7.33;55.43;63703.38;5110760;28;20186;-60
2023/03/15 04:34:15;;;;;;;5.30;3.03;;;;;;;7.29;55.39;63699.53;5110858;28;20243;-59
2023/03/15 04:36:41;;;;;;;8.33;2.77;;;;;;;7.32;55.30;63702.25;5092627;28;20657;-59
2023/03/15 04:39:08;;;;;;;4.93;3.43;;;;;;;7.53;55.07;63722.69;5110589;28;20199;-59
2023/03/15 04:41:34;;;;;;;5.33;3.63;;;;;;;7.58;55.05;63731.19;5092602;28;20271;-60
2023/03/15 04:44:04;;;;;;;7.60;2.97;;;;;;;7.26;55.65;63695.72;5110718;28;20772;-59
2023/03/15 04:46:32;;;;;;;6.03;2.93;;;;;;;7.15;57.13;63683.72;5110568;28;20302;-60
2023/03/15 04:48:58;;;;;;;8.93;2.93;;;;;;;7.15;57.30;63681.22;5110436;28;20219;-60
2023/03/15 04:51:24;;;;;;;9.87;3.50;;;;;;;7.20;56.92;63686.66;5110632;28;20248;-59
2023/03/15 04:53:49;;;;;;;14.67;4.33;;;;;;;7.20;57.82;63689.72;5110472;28;20210;-58
2023/03/15 04:56:15;;;;;;;7.97;3.50;;;;;;;7.21;57.62;63690.81;5110400;28;20186;-60
2023/03/15 04:58:40;;;;;;;9.00;3.37;;;;;;;7.32;57.99;63702.81;5110351;28;20240;-60
2023/03/15 05:01:06;;;;;;;7.17;3.57;;;;;;;7.57;58.09;63729.56;5110413;28;20184;-59
2023/03/15 05:03:31;;;;;;;9.27;3.83;;;;;;;7.77;57.20;63751.38;5110407;28;20176;-59
2023/03/15 05:05:57;;;;;;;6.20;3.90;;;;;;;7.64;57.44;63737.72;5110266;28;20826;-60
2023/03/15 05:08:22;;;;;;;9.67;4.20;;;;;;;7.49;58.13;63720.81;5110157;28;20188;-54
2023/03/15 05:10:48;;;;;;;7.60;3.73;;;;;;;7.41;59.48;63712.09;5110355;28;20196;-56
2023/03/15 05:13:13;;;;;;;7.77;3.60;;;;;;;7.45;58.17;63716.47;5110268;28;20235;-54
2023/03/15 05:15:39;;;;;;;5.17;3.90;;;;;;;7.38;58.35;63709.34;5110237;28;20203;-55
2023/03/15 05:18:04;;;;;;;5.90;3.37;;;;;;;7.21;58.08;63692.78;5110538;28;20184;-55
2023/03/15 05:20:30;;;;;;;6.10;3.30;;;;;;;7.25;59.57;63695.16;5091713;28;20221;-58
2023/03/15 05:22:56;;;;;;;6.97;3.90;;;;;;;7.25;58.56;63694.63;5110500;28;20222;-57
2023/03/15 05:25:23;;;;;;;10.10;4.00;;;;;;;7.31;59.41;63701.72;5088279;22;20725;-58
2023/03/15 05:27:48;;;;;;;10.43;3.57;;;;;;;7.39;58.58;63707.41;5068016;28;20185;-58
2023/03/15 05:30:15;;;;;;;5.73;2.97;;;;;;;7.62;57.02;63735.00;5052810;28;20219;-55
2023/03/15 05:32:43;;;;;;;8.17;3.80;;;;;;;7.70;57.20;63746.22;5072749;28;20212;-54
2023/03/15 05:35:10;;;;;;;8.13;3.37;;;;;;;7.66;56.44;63739.38;5072821;28;20694;-56
2023/03/15 05:37:35;;;;;;;8.10;3.83;;;;;;;7.62;57.57;63737.50;5072582;28;20188;-54
2023/03/15 05:40:01;;;;;;;7.93;3.80;;;;;;;8.66;97.39;63844.97;5071941;28;20224;-55
2023/03/15 05:42:28;;;;;;;7.40;3.30;;;;;;;9.07;100.00;63892.28;5072483;28;20185;-56
2023/03/15 05:44:54;;;;;;;5.07;3.90;;;;;;;9.46;78.65;63934.91;5072723;28;20212;-56
2023/03/15 05:47:20;;;;;;;7.97;4.10;;;;;;;9.40;58.80;63925.84;5072959;28;20207;-56
2023/03/15 05:49:46;;;;;;;8.90;4.07;;;;;;;9.18;57.95;63901.78;5072879;28;20208;-55
2023/03/15 05:52:12;;;;;;;5.57;4.10;;;;;;;9.04;57.07;63889.00;5072657;28;20215;-56
2023/03/15 05:54:37;;;;;;;10.37;5.07;;;;;;;8.86;55.22;63869.88;5054288;28;20209;-55
2023/03/15 05:57:03;;;;;;;9.83;4.73;;;;;;;8.80;55.78;63865.28;5072341;28;20189;-55
2023/03/15 05:59:29;;;;;;;11.43;5.17;;;;;;;8.86;54.23;63866.81;5072770;28;20219;-55
2023/03/15 06:01:55;;;;;;;11.20;5.20;;;;;;;8.62;53.56;63843.66;5072391;28;20184;-55
2023/03/15 06:04:20;;;;;;;14.50;4.90;;;;;;;8.22;55.20;63799.97;5054715;28;20221;-54
2023/03/15 06:06:46;;;;;;;8.87;5.07;;;;;;;8.04;54.68;63780.31;5072396;28;20235;-54
2023/03/15 06:09:11;;;;;;;11.67;5.07;;;;;;;7.99;55.87;63774.84;5072335;28;20209;-55
2023/03/15 06:11:36;;;;;;;12.47;5.63;;;;;;;8.09;55.48;63788.25;5072432;28;20582;-54
2023/03/15 06:14:03;;;;;;;13.43;8.40;;;;;;;8.37;55.54;63814.41;5072336;28;20301;-57
2023/03/15 06:16:28;;;;;;;15.17;6.10;;;;;;;8.23;56.17;63799.09;5072278;28;20287;-54
2023/03/15 06:18:54;;;;;;;16.67;6.27;;;;;;;8.17;56.94;63789.47;5072338;28;20288;-57
2023/03/15 06:21:19;;;;;;;9.60;6.03;;;;;;;8.17;57.09;63794.50;5071928;28;20732;-55
2023/03/15 06:23:44;;;;;;;14.83;6.87;;;;;;;8.13;57.56;63790.13;5072326;28;20714;-54
2023/03/15 06:26:10;;;;;;;13.87;7.23;;;;;;;8.29;56.25;63808.16;5072238;28;20189;-55
2023/03/15 06:28:36;;;;;;;11.33;5.07;;;;;;;8.16;56.95;63796.44;5072152;28;20558;-55
2023/03/15 06:31:12;;;;;;;7.13;4.10;;;;;;;8.36;56.45;63815.28;5054003;28;20280;-57
2023/03/15 06:33:38;;;;;;;5.90;3.00;;;;;;;8.29;57.47;63803.16;5072330;28;20573;-59
2023/03/15 06:36:04;;;;;;;7.33;4.00;;;;;;;8.52;57.86;63832.75;5072127;28;20246;-64
2023/03/15 06:38:30;;;;;;;5.80;3.90;;;;;;;8.79;56.59;63861.69;5071620;28;20270;-56
2023/03/15 06:40:59;;;;;;;7.27;3.67;;;;;;;8.82;57.58;63864.97;5071903;28;20228;-57
2023/03/15 06:43:25;;;;;;;8.40;3.73;;;;;;;8.82;56.81;63862.44;5071701;28;20184;-59
2023/03/15 06:45:52;;;;;;;9.93;3.87;;;;;;;8.85;57.06;63868.22;5071801;28;20254;-57
2023/03/15 06:48:18;;;;;;;4.87;3.53;;;;;;;9.01;55.39;63883.22;5071742;28;20189;-57
2023/03/15 06:50:43;;;;;;;10.37;4.77;;;;;;;8.84;55.24;63864.63;5071466;28;20207;-57
2023/03/15 06:53:09;;;;;;;6.27;4.47;;;;;;;8.88;56.46;63871.53;5071564;28;20766;-58
2023/03/15 06:55:34;;;;;;;10.50;5.93;;;;;;;8.70;56.61;63849.34;5071512;28;20200;-58
2023/03/15 06:58:00;;;;;;;10.80;5.53;;;;;;;8.80;58.57;63860.81;5071626;28;20185;-57
2023/03/15 07:00:25;;;;;;;12.10;6.23;;;;;;;8.90;56.66;63873.72;5072151;28;20227;-61
2023/03/15 07:02:51;;;;;;;11.97;5.40;;;;;;;9.02;55.21;63889.34;5071620;28;20181;-62
2023/03/15 07:05:16;;;;;;;11.23;5.70;;;;;;;9.03;56.31;63885.41;5071360;28;20215;-61
2023/03/15 07:07:41;;;;;;;14.83;5.93;;;;;;;9.07;56.91;63889.78;5053681;28;20207;-61
2023/03/15 07:10:08;;;;;;;15.53;5.60;;;;;;;9.21;56.53;63905.63;5071813;28;20204;-60
2023/03/15 07:12:33;;;;;;;12.60;6.03;;;;;;;9.39;54.13;63924.75;5071293;28;20204;-59
2023/03/15 07:14:58;;;;;;;12.53;6.83;;;;;;;9.53;55.48;63939.50;5071281;28;20208;-58
2023/03/15 07:17:24;;;;;;;11.37;5.53;;;;;;;9.65;54.02;63955.16;5071405;28;20313;-58
2023/03/15 07:19:50;;;;;;;12.40;5.57;;;;;;;9.73;54.64;63964.44;5071331;28;20212;-55
2023/03/15 07:22:16;;;;;;;13.33;5.70;;;;;;;9.74;54.80;63962.47;5053180;28;20654;-57
2023/03/15 07:24:42;;;;;;;9.37;5.27;;;;;;;9.94;54.70;63987.41;5071108;28;20309;-54
2023/03/15 07:27:11;;;;;;;8.20;4.90;;;;;;;10.08;54.82;64002.72;5070992;28;20185;-56
2023/03/15 07:29:37;;;;;;;10.53;5.13;;;;;;;10.15;52.41;64009.88;5052931;28;20200;-55
2023/03/15 07:32:02;;;;;;;9.00;4.67;;;;;;;10.25;51.52;64015.22;5052698;28;20258;-57
2023/03/15 07:34:28;;;;;;;9.63;4.27;;;;;;;10.20;51.06;64012.28;5070692;28;20281;-56
2023/03/15 07:36:53;;;;;;;8.07;4.53;;;;;;;10.16;49.84;64005.38;5070902;28;20714;-56
2023/03/15 07:39:19;;;;;;;8.27;4.37;;;;;;;10.25;49.73;64017.72;5070879;28;20212;-55
2023/03/15 07:41:45;;;;;;;11.93;4.43;;;;;;;10.30;50.43;64020.69;5070678;28;20230;-56
2023/03/15 07:44:10;;;;;;;9.47;4.47;;;;;;;10.17;49.67;64011.50;5070650;28;20232;-55
2023/03/15 07:46:35;;;;;;;5.20;3.83;;;;;;;9.99;50.71;63990.38;5070600;28;20177;-55
2023/03/15 07:49:01;;;;;;;9.47;4.47;;;;;;;10.05;51.78;63996.38;5070921;28;20220;-56
2023/03/15 07:51:26;;;;;;;10.00;4.27;;;;;;;10.23;51.03;64018.63;5052804;28;20184;-54
2023/03/15 07:53:52;;;;;;;9.50;4.20;;;;;;;10.21;49.26;64016.44;5070071;28;20665;-55
2023/03/15 07:56:18;;;;;;;10.83;3.40;;;;;;;9.84;49.43;63973.94;5070307;28;20226;-55
2023/03/15 07:58:43;;;;;;;6.57;3.47;;;;;;;9.91;50.41;63983.59;5052351;28;20188;-55
2023/03/15 08:01:08;;;;;;;7.87;3.77;;;;;;;10.14;50.78;64006.25;5070364;28;20181;-55
2023/03/15 08:03:35;;;;;;;6.93;4.70;;;;;;;10.17;52.20;64012.06;5070290;28;20272;-56
2023/03/15 08:06:00;;;;;;;10.93;5.13;;;;;;;10.30;52.66;64026.28;5070227;28;20254;-55
2023/03/15 08:08:26;;;;;;;9.00;5.27;;;;;;;10.43;51.07;64039.94;5070102;28;20230;-56
2023/03/15 08:10:51;;;;;;;10.50;4.30;;;;;;;10.70;51.95;64065.03;5070058;28;20609;-56
2023/03/15 08:13:16;;;;;;;15.07;4.77;;;;;;;10.95;51.86;64094.91;5052547;28;20211;-56
2023/03/15 08:15:46;;;;;;;8.37;4.57;;;;;;;10.91;50.88;64092.50;5070427;28;20369;-56
2023/03/15 08:18:11;;;;;;;8.47;4.57;;;;;;;10.98;50.66;64100.16;5070379;28;20181;-56
2023/03/15 08:20:36;;;;;;;14.10;4.23;;;;;;;11.08;50.64;64108.59;5070269;28;20362;-58
2023/03/15 08:23:02;;;;;;;5.97;3.50;;;;;;;11.30;50.75;64132.69;5070408;28;20690;-55
2023/03/15 08:25:28;;;;;;;7.33;4.50;;;;;;;11.53;50.40;64157.88;5070409;28;20208;-56
2023/03/15 08:27:54;;;;;;;7.67;4.03;;;;;;;11.73;48.73;64176.75;5070312;28;20686;-55
2023/03/15 08:30:20;;;;;;;6.00;3.10;;;;;;;11.70;48.19;64175.97;5069832;28;20331;-55
2023/03/15 08:32:48;;;;;;;9.63;3.03;;;;;;;11.76;48.40;64183.09;5069938;28;20201;-56
2023/03/15 08:35:22;;;;;;;5.10;3.13;;;;;;;11.89;47.46;64196.81;5070566;28;20216;-55
2023/03/15 08:37:51;;;;;;;6.33;3.70;;;;;;;11.85;46.88;64194.94;5070164;28;20192;-56
2023/03/15 08:40:23;;;;;;;4.37;3.43;;;;;;;11.84;46.78;64190.78;5070414;28;20291;-55
2023/03/15 08:42:48;;;;;;;5.37;3.17;;;;;;;11.87;45.95;64192.09;5069783;28;20200;-55
2023/03/15 08:45:15;;;;;;;6.03;3.40;;;;;;;12.13;46.38;64225.09;5070252;28;20204;-56
2023/03/15 08:47:42;;;;;;;5.23;3.23;;;;;;;12.93;53.54;64307.78;5070077;28;20188;-55
2023/03/15 08:50:11;;;;;;;6.57;3.13;;;;;;;12.37;47.22;64248.88;5070156;28;20245;-55
2023/03/15 08:52:38;;;;;;;5.43;3.27;;;;;;;12.45;46.72;64260.19;5069957;28;20280;-55
2023/03/15 08:55:04;;;;;;;6.23;3.07;;;;;;;12.13;46.52;64220.03;5069620;28;20209;-55
2023/03/15 08:57:31;;;;;;;5.57;3.27;;;;;;;12.22;47.46;64232.44;5069953;28;20226;-54
2023/03/15 08:59:57;;;;;;;5.33;2.40;;;;;;;12.36;46.29;64245.78;5069782;28;20282;-56
2023/03/15 09:02:23;;;;;;;5.53;3.30;;;;;;;11.99;46.67;64207.78;5069930;28;20208;-56
2023/03/15 09:04:50;;;;;;;6.97;3.43;;;;;;;12.43;45.39;64255.47;5071320;28;20216;-57
2023/03/15 09:07:15;;;;;;;4.77;2.93;;;;;;;12.65;46.02;64277.06;5054589;28;20189;-57
2023/03/15 09:09:41;;;;;;;3.70;2.77;;;;;;;12.60;44.43;64276.63;5073337;28;20311;-56
2023/03/15 09:12:07;;;;;;;3.50;2.80;;;;;;;12.39;43.70;64254.16;5072161;28;20709;-56
2023/03/15 09:14:33;;;;;;;4.20;3.03;;;;;;;11.99;44.61;64207.78;5073245;28;20239;-55
2023/03/15 09:16:58;;;;;;;6.33;2.97;;;;;;;11.91;45.05;64201.53;5071646;28;20662;-56
2023/03/15 09:19:24;;;;;;;6.70;3.07;;;;;;;11.92;45.68;64202.63;5072919;28;20221;-59
2023/03/15 09:21:50;;;;;;;7.50;3.63;;;;;;;11.99;45.63;64207.78;5072490;28;20594;-58
2023/03/15 09:24:15;;;;;;;7.47;3.00;;;;;;;12.12;45.93;64224.00;5073041;28;20212;-60
2023/03/15 09:26:41;;;;;;;6.63;3.40;;;;;;;11.89;45.37;64196.25;5072669;28;20193;-60
2023/03/15 09:29:08;;;;;;;7.93;3.33;;;;;;;11.69;46.35;64177.41;5072835;28;20562;-56
2023/03/15 09:31:34;;;;;;;4.90;2.77;;;;;;;12.75;70.34;64290.00;5071820;28;20671;-57
2023/03/15 09:34:00;;;;;;;8.17;3.07;;;;;;;13.99;69.50;64426.13;5073062;28;20306;-59
2023/03/15 09:36:25;;;;;;;8.00;3.43;;;;;;;14.38;46.55;64465.91;5073134;28;20216;-55
2023/03/15 09:38:51;;;;;;;3.65;2.63;;;;;;;14.93;59.60;64528.88;5072951;28;20221;-56
2023/03/15 09:41:40;;;;;;;9.20;3.38;;;;;;;16.04;52.49;64646.81;5072711;28;20216;-56
2023/03/15 09:44:09;;;;;;;6.00;3.38;;;;;;;15.78;42.47;64621.28;5072907;28;20707;-55
2023/03/15 09:46:42;;;;;;;8.05;4.35;;;;;;;15.06;41.64;64542.63;5054895;28;20199;-56
2023/03/15 09:49:27;;;;;;;7.25;4.40;;;;;;;14.62;42.86;64494.84;5073023;28;20247;-54
2023/03/15 09:52:36;;;;;;;6.53;4.40;;;;;;;13.89;43.77;64412.06;5072390;28;20189;-55
2023/03/15 09:55:12;;;;;;;9.68;3.80;;;;;;;13.54;44.37;64376.16;4974597;28;20270;-54
2023/03/15 09:57:44;;;;;;;7.38;3.65;;;;;;;13.19;45.38;64338.31;4991283;28;20275;-58
2023/03/15 10:00:16;;;;;;;11.50;3.75;;;;;;;13.13;45.41;64329.72;5041290;28;20231;-57
2023/03/15 10:02:47;;;;;;;3.70;3.33;;;;;;;13.02;47.09;64320.19;5072317;28;20192;-58
2023/03/15 10:05:24;;;;;;;5.63;3.45;;;;;;;12.99;46.48;64316.88;5072951;28;20205;-58
2023/03/15 10:07:51;;;;;;;6.97;3.78;;;;;;;13.06;45.44;64322.06;5055713;28;20191;-57
2023/03/15 10:10:22;;;;;;;4.93;2.90;;;;;;;13.06;45.50;64324.59;5054405;28;20242;-56
2023/03/15 10:13:23;;;;;;;5.05;2.90;;;;;;;13.08;46.25;64326.22;5071909;28;20346;-56
2023/03/15 10:16:14;;;;;;;4.13;2.90;;;;;;;12.51;45.37;64264.78;5071468;28;20606;-57
2023/03/15 10:18:51;;;;;;;4.82;2.92;;;;;;;13.67;51.98;64390.44;5072345;28;20196;-58
2023/03/15 10:21:50;;;;;;;3.15;2.60;;;;;;;15.49;52.28;64586.84;5072168;28;20243;-57
2023/03/15 10:24:24;;;;;;;6.00;2.92;;;;;;;16.17;43.90;64664.22;5040193;28;20306;-59
2023/03/15 10:26:51;;;;;;;5.40;3.03;;;;;;;15.44;42.26;64581.34;5072385;28;20335;-58
2023/03/15 10:29:20;;;;;;;5.30;2.75;;;;;;;14.62;42.51;64494.28;5071890;28;20208;-58
2023/03/15 10:31:46;;;;;;;4.97;2.90;;;;;;;14.56;42.23;64488.25;5070903;28;20228;-59
2023/03/15 10:34:13;;;;;;;5.67;3.40;;;;;;;14.16;43.25;64442.28;5071810;28;20623;-58
2023/03/15 10:36:48;;;;;;;4.97;3.08;;;;;;;14.22;43.08;64451.41;5054117;28;20283;-58
2023/03/15 10:39:14;;;;;;;6.95;3.33;;;;;;;13.83;43.93;64408.00;5054178;28;20208;-61
2023/03/15 10:41:43;;;;;;;6.75;3.58;;;;;;;13.67;44.13;64387.91;5071802;28;20185;-58
2023/03/15 10:44:16;;;;;;;8.05;3.72;;;;;;;13.11;43.33;64327.53;5071572;28;20286;-60
2023/03/15 10:46:59;;;;;;;6.20;2.75;;;;;;;12.98;44.25;64315.25;5053162;28;20188;-61
2023/03/15 10:49:34;;;;;;;5.13;3.33;;;;;;;12.97;44.88;64314.69;5071871;28;20299;-60
2023/03/15 10:51:59;;;;;;;4.23;2.83;;;;;;;13.12;44.88;64328.09;5053627;28;20188;-59
2023/03/15 10:54:26;;;;;;;5.10;3.00;;;;;;;12.96;45.19;64313.03;5072151;28;20548;-56
2023/03/15 10:57:04;;;;;;;5.53;3.90;;;;;;;12.91;45.06;64310.09;5071827;28;20196;-56
2023/03/15 10:59:34;;;;;;;9.88;3.70;;;;;;;13.00;43.93;64320.53;5071906;28;20247;-57
2023/03/15 11:02:11;;;;;;;5.00;2.70;;;;;;;12.69;44.58;64283.97;5071534;28;20181;-58
2023/03/15 11:04:49;;;;;;;4.47;3.33;;;;;;;12.68;44.86;64283.41;5071257;28;20281;-57
2023/03/15 11:07:14;;;;;;;11.13;6.63;;;;;;;12.24;45.14;64235.16;5071089;28;20271;-58
2023/03/15 11:09:43;;;;;;;6.67;4.00;;;;;;;12.06;45.02;64215.44;5071246;28;20300;-59
2023/03/15 11:12:15;;;;;;;9.97;3.30;;;;;;;11.99;45.38;64209.75;5071407;28;20207;-60
2023/03/15 11:14:43;;;;;;;7.07;2.90;;;;;;;12.24;45.42;64234.63;5036021;28;20215;-55
2023/03/15 11:17:25;;;;;;;8.33;3.20;;;;;;;12.60;46.28;64274.66;5071212;28;20191;-56
2023/03/15 11:20:11;;;;;;;3.87;2.67;;;;;;;12.73;44.46;64287.81;5071514;28;20636;-54
2023/03/15 11:22:38;;;;;;;5.17;2.80;;;;;;;12.76;46.81;64289.13;5071425;28;20181;-55
2023/03/15 11:25:04;;;;;;;9.37;3.40;;;;;;;13.38;47.37;64359.72;5070923;28;20200;-54
2023/03/15 11:27:30;;;;;;;9.13;2.93;;;;;;;13.14;44.10;64330.28;5069804;28;20193;-58
2023/03/15 11:30:00;;;;;;;6.17;2.93;;;;;;;12.94;43.69;64311.41;5070856;28;20269;-62
2023/03/15 11:32:29;;;;;;;5.30;3.00;;;;;;;12.14;43.59;64226.72;5070953;28;20219;-58
2023/03/15 11:35:09;;;;;;;5.83;3.17;;;;;;;12.50;45.20;64263.69;5071309;28;20216;-58
2023/03/15 11:37:56;;;;;;;7.40;3.00;;;;;;;12.69;46.54;64286.50;5071154;28;20250;-57
2023/03/15 11:40:31;;;;;;;4.40;2.63;;;;;;;12.88;44.08;64307.34;5071172;28;20569;-58